sensor_id;sensor_type;location;lat;lon;timestamp;pressure;altitude;pressure_sealevel;temperature;humidity
3812;BME280;1921;49.368;11.068;2023-04-15T00:00:07;96650.06;;;7.47;88.66
3812;BME280;1921;49.368;11.068;2023-04-15T00:02:34;96645.41;;;7.42;88.29
3812;BME280;1921;49.368;11.068;2023-04-15T00:05:02;96673.31;;;7.55;88.35
3812;BME280;1921;49.368;11.068;2023-04-15T00:07:28;96653.81;;;7.44;88.27
3812;BME280;1921;49.368;11.068;2023-04-15T00:09:54;96647.81;;;7.44;88.18
3812;BME280;1921;49.368;11.068;2023-04-15T00:12:24;96581.63;;;6.97;88.21
3812;BME280;1921;49.368;11.068;2023-04-15T00:14:50;96656.06;;;7.47;88.04
3812;BME280;1921;49.368;11.068;2023-04-15T00:17:16;96670.34;;;7.58;88.02
3812;BME280;1921;49.368;11.068;2023-04-15T00:19:42;96651.84;;;7.46;88.73
3812;BME280;1921;49.368;11.068;2023-04-15T00:22:09;96594.47;;;7.20;88.51
3812;BME280;1921;49.368;11.068;2023-04-15T00:24:35;96636.53;;;7.51;88.41
3812;BME280;1921;49.368;11.068;2023-04-15T00:27:01;96689.19;;;7.81;88.81
3812;BME280;1921;49.368;11.068;2023-04-15T00:29:28;96606.53;;;7.27;87.80
3812;BME280;1921;49.368;11.068;2023-04-15T00:31:54;96623.66;;;7.43;88.28
3812;BME280;1921;49.368;11.068;2023-04-15T00:34:19;96629.19;;;7.55;88.30
3812;BME280;1921;49.368;11.068;2023-04-15T00:36:45;96632.16;;;7.52;88.33
3812;BME280;1921;49.368;11.068;2023-04-15T00:39:11;96666.19;;;7.78;88.00
3812;BME280;1921;49.368;11.068;2023-04-15T00:41:37;96645.91;;;7.67;88.42
3812;BME280;1921;49.368;11.068;2023-04-15T00:44:06;96631.00;;;7.54;88.39
3812;BME280;1921;49.368;11.068;2023-04-15T00:46:35;96607.31;;;7.43;87.91
3812;BME280;1921;49.368;11.068;2023-04-15T00:49:04;96594.81;;;7.32;88.19
3812;BME280;1921;49.368;11.068;2023-04-15T00:51:34;96625.06;;;7.61;88.63
3812;BME280;1921;49.368;11.068;2023-04-15T00:54:04;96659.47;;;7.84;88.20
3812;BME280;1921;49.368;11.068;2023-04-15T00:56:30;96604.19;;;7.47;88.50
3812;BME280;1921;49.368;11.068;2023-04-15T00:58:57;96607.75;;;7.46;88.08
3812;BME280;1921;49.368;11.068;2023-04-15T01:01:24;96625.75;;;7.69;88.07
3812;BME280;1921;49.368;11.068;2023-04-15T01:03:51;96648.63;;;7.80;88.00
3812;BME280;1921;49.368;11.068;2023-04-15T01:06:17;96551.94;;;7.14;87.68
3812;BME280;1921;49.368;11.068;2023-04-15T01:08:44;96602.66;;;7.53;87.83
3812;BME280;1921;49.368;11.068;2023-04-15T01:11:13;96566.66;;;7.28;87.48
3812;BME280;1921;49.368;11.068;2023-04-15T01:13:39;96607.84;;;7.53;87.50
3812;BME280;1921;49.368;11.068;2023-04-15T01:16:06;96560.75;;;7.20;87.23
3812;BME280;1921;49.368;11.068;2023-04-15T01:18:35;96588.28;;;7.36;87.52
3812;BME280;1921;49.368;11.068;2023-04-15T01:21:02;96650.97;;;7.75;87.54
3812;BME280;1921;49.368;11.068;2023-04-15T01:23:29;96607.31;;;7.43;87.09
3812;BME280;1921;49.368;11.068;2023-04-15T01:25:56;96626.00;;;7.53;87.05
3812;BME280;1921;49.368;11.068;2023-04-15T01:28:23;96603.03;;;7.35;87.05
3812;BME280;1921;49.368;11.068;2023-04-15T01:30:50;96627.78;;;7.52;87.60
3812;BME280;1921;49.368;11.068;2023-04-15T01:33:30;96608.41;;;7.34;87.43
3812;BME280;1921;49.368;11.068;2023-04-15T01:35:56;96613.38;;;7.50;88.12
3812;BME280;1921;49.368;11.068;2023-04-15T01:38:25;96633.47;;;7.63;87.81
3812;BME280;1921;49.368;11.068;2023-04-15T01:40:51;96618.75;;;7.48;88.25
3812;BME280;1921;49.368;11.068;2023-04-15T01:43:17;96646.63;;;7.61;87.91
3812;BME280;1921;49.368;11.068;2023-04-15T01:45:43;96611.97;;;7.47;88.24
3812;BME280;1921;49.368;11.068;2023-04-15T01:48:09;96564.16;;;7.20;88.18
3812;BME280;1921;49.368;11.068;2023-04-15T01:50:35;96623.94;;;7.48;88.21
3812;BME280;1921;49.368;11.068;2023-04-15T01:53:03;96512.84;;;6.80;88.34
3812;BME280;1921;49.368;11.068;2023-04-15T01:55:28;96588.38;;;7.27;88.77
3812;BME280;1921;49.368;11.068;2023-04-15T01:57:55;96557.66;;;7.10;88.22
3812;BME280;1921;49.368;11.068;2023-04-15T02:00:22;96578.56;;;7.23;88.50
3812;BME280;1921;49.368;11.068;2023-04-15T02:02:48;96602.84;;;7.37;88.60
3812;BME280;1921;49.368;11.068;2023-04-15T02:05:14;96568.91;;;7.17;89.37
3812;BME280;1921;49.368;11.068;2023-04-15T02:07:42;96614.56;;;7.47;88.66
3812;BME280;1921;49.368;11.068;2023-04-15T02:10:08;96576.69;;;7.17;88.58
3812;BME280;1921;49.368;11.068;2023-04-15T02:12:35;96546.75;;;6.99;88.38
3812;BME280;1921;49.368;11.068;2023-04-15T02:15:01;96612.88;;;7.40;88.79
3812;BME280;1921;49.368;11.068;2023-04-15T02:17:27;96558.09;;;7.13;88.10
3812;BME280;1921;49.368;11.068;2023-04-15T02:19:55;96625.34;;;7.51;88.84
3812;BME280;1921;49.368;11.068;2023-04-15T02:22:21;96624.53;;;7.50;88.92
3812;BME280;1921;49.368;11.068;2023-04-15T02:24:47;96568.28;;;7.15;89.21
3812;BME280;1921;49.368;11.068;2023-04-15T02:27:15;96614.47;;;7.41;89.17
3812;BME280;1921;49.368;11.068;2023-04-15T02:29:43;96599.91;;;7.40;89.05
3812;BME280;1921;49.368;11.068;2023-04-15T02:32:11;96630.81;;;7.56;88.55
3812;BME280;1921;49.368;11.068;2023-04-15T02:34:38;96597.13;;;7.26;88.92
3812;BME280;1921;49.368;11.068;2023-04-15T02:37:06;96618.06;;;7.40;88.59
3812;BME280;1921;49.368;11.068;2023-04-15T02:39:32;96636.97;;;7.55;89.16
3812;BME280;1921;49.368;11.068;2023-04-15T02:41:58;96522.81;;;6.83;88.49
3812;BME280;1921;49.368;11.068;2023-04-15T02:44:26;96555.00;;;7.03;88.63
3812;BME280;1921;49.368;11.068;2023-04-15T02:46:52;96590.78;;;7.29;88.73
3812;BME280;1921;49.368;11.068;2023-04-15T02:49:20;96608.91;;;7.44;88.86
3812;BME280;1921;49.368;11.068;2023-04-15T02:51:46;96600.63;;;7.34;88.50
3812;BME280;1921;49.368;11.068;2023-04-15T02:54:21;96605.25;;;7.38;88.77
3812;BME280;1921;49.368;11.068;2023-04-15T02:56:50;96563.81;;;7.23;89.10
3812;BME280;1921;49.368;11.068;2023-04-15T02:59:16;96615.63;;;7.53;88.57
3812;BME280;1921;49.368;11.068;2023-04-15T03:01:42;96572.09;;;7.34;88.45
3812;BME280;1921;49.368;11.068;2023-04-15T03:04:08;96566.66;;;7.28;88.42
3812;BME280;1921;49.368;11.068;2023-04-15T03:06:34;96581.50;;;7.35;88.26
3812;BME280;1921;49.368;11.068;2023-04-15T03:09:00;96549.09;;;7.09;88.65
3812;BME280;1921;49.368;11.068;2023-04-15T03:11:28;96530.84;;;7.03;88.59
3812;BME280;1921;49.368;11.068;2023-04-15T03:13:53;96573.00;;;7.26;88.76
3812;BME280;1921;49.368;11.068;2023-04-15T03:16:19;96619.88;;;7.61;88.86
3812;BME280;1921;49.368;11.068;2023-04-15T03:18:45;96600.13;;;7.45;88.76
3812;BME280;1921;49.368;11.068;2023-04-15T03:21:11;96610.16;;;7.48;88.49
3812;BME280;1921;49.368;11.068;2023-04-15T03:23:37;96611.78;;;7.49;89.12
3812;BME280;1921;49.368;11.068;2023-04-15T03:26:04;96604.03;;;7.34;88.92
3812;BME280;1921;49.368;11.068;2023-04-15T03:28:30;96549.50;;;7.13;88.75
3812;BME280;1921;49.368;11.068;2023-04-15T03:30:57;96598.78;;;7.49;89.25
3812;BME280;1921;49.368;11.068;2023-04-15T03:33:23;96537.72;;;7.10;88.87
3812;BME280;1921;49.368;11.068;2023-04-15T03:35:50;96577.16;;;7.42;88.26
3812;BME280;1921;49.368;11.068;2023-04-15T03:38:17;96567.66;;;7.27;88.56
3812;BME280;1921;49.368;11.068;2023-04-15T03:40:44;96598.59;;;7.50;88.30
3812;BME280;1921;49.368;11.068;2023-04-15T03:43:10;96592.34;;;7.45;88.50
3812;BME280;1921;49.368;11.068;2023-04-15T03:45:36;96546.91;;;7.13;88.50
3812;BME280;1921;49.368;11.068;2023-04-15T03:48:02;96517.38;;;6.92;88.29
3812;BME280;1921;49.368;11.068;2023-04-15T03:50:28;96592.13;;;7.40;87.95
3812;BME280;1921;49.368;11.068;2023-04-15T03:52:54;96577.09;;;7.35;87.81
3812;BME280;1921;49.368;11.068;2023-04-15T03:55:20;96587.75;;;7.25;88.30
3812;BME280;1921;49.368;11.068;2023-04-15T03:57:45;96541.03;;;7.04;88.23
3812;BME280;1921;49.368;11.068;2023-04-15T04:00:11;96564.53;;;7.17;88.31
3812;BME280;1921;49.368;11.068;2023-04-15T04:02:37;96572.19;;;7.25;88.23
3812;BME280;1921;49.368;11.068;2023-04-15T04:05:03;96564.41;;;7.25;88.24
3812;BME280;1921;49.368;11.068;2023-04-15T04:07:29;96538.19;;;6.99;88.21
3812;BME280;1921;49.368;11.068;2023-04-15T04:09:57;96584.53;;;7.23;88.38
3812;BME280;1921;49.368;11.068;2023-04-15T04:12:22;96572.34;;;7.03;88.58
3812;BME280;1921;49.368;11.068;2023-04-15T04:14:48;96585.53;;;7.22;88.55
3812;BME280;1921;49.368;11.068;2023-04-15T04:17:14;96571.91;;;7.20;87.83
3812;BME280;1921;49.368;11.068;2023-04-15T04:19:40;96614.75;;;7.46;88.07
3812;BME280;1921;49.368;11.068;2023-04-15T04:22:05;96541.66;;;7.06;88.15
3812;BME280;1921;49.368;11.068;2023-04-15T04:24:31;96564.41;;;7.25;88.16
3812;BME280;1921;49.368;11.068;2023-04-15T04:26:59;96589.06;;;7.36;88.32
3812;BME280;1921;49.368;11.068;2023-04-15T04:29:25;96501.84;;;6.78;87.96
3812;BME280;1921;49.368;11.068;2023-04-15T04:31:51;96497.91;;;6.67;88.33
3812;BME280;1921;49.368;11.068;2023-04-15T04:34:17;96635.81;;;7.57;88.35
3812;BME280;1921;49.368;11.068;2023-04-15T04:36:43;96563.91;;;7.00;88.27
3812;BME280;1921;49.368;11.068;2023-04-15T04:39:08;96645.38;;;7.57;88.27
3812;BME280;1921;49.368;11.068;2023-04-15T04:41:34;96605.81;;;7.34;88.50
3812;BME280;1921;49.368;11.068;2023-04-15T04:44:02;96601.59;;;7.33;88.48
3812;BME280;1921;49.368;11.068;2023-04-15T04:46:28;96533.88;;;7.06;88.31
3812;BME280;1921;49.368;11.068;2023-04-15T04:48:54;96617.34;;;7.46;88.23
3812;BME280;1921;49.368;11.068;2023-04-15T04:51:20;96652.09;;;7.66;88.40
3812;BME280;1921;49.368;11.068;2023-04-15T04:53:46;96565.94;;;7.20;88.21
3812;BME280;1921;49.368;11.068;2023-04-15T04:56:11;96620.00;;;7.52;87.86
3812;BME280;1921;49.368;11.068;2023-04-15T04:58:37;96603.13;;;7.42;87.51
3812;BME280;1921;49.368;11.068;2023-04-15T05:01:03;96600.66;;;7.55;87.52
3812;BME280;1921;49.368;11.068;2023-04-15T05:03:29;96566.47;;;7.30;87.47
3812;BME280;1921;49.368;11.068;2023-04-15T05:05:54;96548.59;;;7.20;87.47
3812;BME280;1921;49.368;11.068;2023-04-15T05:08:20;96593.00;;;7.68;86.48
3812;BME280;1921;49.368;11.068;2023-04-15T05:10:46;96601.66;;;7.75;86.02
3812;BME280;1921;49.368;11.068;2023-04-15T05:13:11;96629.88;;;8.00;86.43
3812;BME280;1921;49.368;11.068;2023-04-15T05:15:37;96570.59;;;7.61;85.78
3812;BME280;1921;49.368;11.068;2023-04-15T05:18:05;96569.59;;;7.62;85.74
3812;BME280;1921;49.368;11.068;2023-04-15T05:20:31;96614.56;;;7.83;85.66
3812;BME280;1921;49.368;11.068;2023-04-15T05:22:57;96625.06;;;7.97;85.18
3812;BME280;1921;49.368;11.068;2023-04-15T05:25:23;96576.84;;;7.88;83.76
3812;BME280;1921;49.368;11.068;2023-04-15T05:27:48;96602.25;;;7.92;84.52
3812;BME280;1921;49.368;11.068;2023-04-15T05:30:14;96628.25;;;7.99;84.19
3812;BME280;1921;49.368;11.068;2023-04-15T05:32:40;96613.31;;;7.79;84.97
3812;BME280;1921;49.368;11.068;2023-04-15T05:35:06;96630.84;;;7.99;84.36
3812;BME280;1921;49.368;11.068;2023-04-15T05:37:32;96602.75;;;8.02;84.46
3812;BME280;1921;49.368;11.068;2023-04-15T05:39:58;96616.78;;;8.08;83.78
3812;BME280;1921;49.368;11.068;2023-04-15T05:42:23;96578.94;;;7.77;83.69
3812;BME280;1921;49.368;11.068;2023-04-15T05:44:49;96639.47;;;8.42;83.49
3812;BME280;1921;49.368;11.068;2023-04-15T05:47:15;96613.81;;;8.32;82.08
3812;BME280;1921;49.368;11.068;2023-04-15T05:49:41;96612.34;;;8.45;80.74
3812;BME280;1921;49.368;11.068;2023-04-15T05:52:07;96595.75;;;8.46;81.16
3812;BME280;1921;49.368;11.068;2023-04-15T05:54:32;96617.94;;;8.48;80.21
3812;BME280;1921;49.368;11.068;2023-04-15T05:56:58;96599.00;;;8.54;79.84
3812;BME280;1921;49.368;11.068;2023-04-15T05:59:24;96610.16;;;8.76;79.93
3812;BME280;1921;49.368;11.068;2023-04-15T06:01:49;96667.34;;;9.11;78.68
3812;BME280;1921;49.368;11.068;2023-04-15T06:04:16;96594.94;;;8.73;77.82
3812;BME280;1921;49.368;11.068;2023-04-15T06:06:42;96668.81;;;9.20;77.96
3812;BME280;1921;49.368;11.068;2023-04-15T06:09:08;96606.66;;;8.97;78.28
3812;BME280;1921;49.368;11.068;2023-04-15T06:11:34;96636.91;;;9.05;79.00
3812;BME280;1921;49.368;11.068;2023-04-15T06:14:00;96632.91;;;9.02;77.86
3812;BME280;1921;49.368;11.068;2023-04-15T06:16:25;96648.75;;;9.07;78.49
3812;BME280;1921;49.368;11.068;2023-04-15T06:18:51;96662.06;;;8.98;79.78
3812;BME280;1921;49.368;11.068;2023-04-15T06:21:17;96602.91;;;8.72;80.69
3812;BME280;1921;49.368;11.068;2023-04-15T06:23:43;96617.72;;;8.71;80.31
3812;BME280;1921;49.368;11.068;2023-04-15T06:26:09;96611.31;;;8.74;80.71
3812;BME280;1921;49.368;11.068;2023-04-15T06:28:35;96557.97;;;8.50;80.50
3812;BME280;1921;49.368;11.068;2023-04-15T06:31:00;96628.84;;;8.93;80.74
3812;BME280;1921;49.368;11.068;2023-04-15T06:33:26;96606.22;;;8.94;79.07
3812;BME280;1921;49.368;11.068;2023-04-15T06:35:52;96650.81;;;9.25;78.75
3812;BME280;1921;49.368;11.068;2023-04-15T06:38:18;96634.81;;;9.22;79.58
3812;BME280;1921;49.368;11.068;2023-04-15T06:40:44;96614.56;;;9.17;80.32
3812;BME280;1921;49.368;11.068;2023-04-15T06:43:10;96659.03;;;9.70;78.00
3812;BME280;1921;49.368;11.068;2023-04-15T06:45:36;96616.88;;;9.40;76.73
3812;BME280;1921;49.368;11.068;2023-04-15T06:48:01;96660.78;;;9.56;78.51
3812;BME280;1921;49.368;11.068;2023-04-15T06:50:27;96610.31;;;9.44;77.70
3812;BME280;1921;49.368;11.068;2023-04-15T06:52:54;96647.19;;;9.61;77.56
3812;BME280;1921;49.368;11.068;2023-04-15T06:55:20;96600.88;;;9.50;78.47
3812;BME280;1921;49.368;11.068;2023-04-15T06:57:46;96633.13;;;9.49;79.19
3812;BME280;1921;49.368;11.068;2023-04-15T07:00:13;96619.22;;;9.76;79.22
3812;BME280;1921;49.368;11.068;2023-04-15T07:02:38;96655.97;;;10.21;76.16
3812;BME280;1921;49.368;11.068;2023-04-15T07:05:06;96657.00;;;10.33;76.07
3812;BME280;1921;49.368;11.068;2023-04-15T07:07:32;96648.41;;;10.46;75.26
3812;BME280;1921;49.368;11.068;2023-04-15T07:09:57;96623.13;;;10.46;71.83
3812;BME280;1921;49.368;11.068;2023-04-15T07:12:23;96633.97;;;10.57;73.93
3812;BME280;1921;49.368;11.068;2023-04-15T07:14:49;96596.41;;;10.05;73.29
3812;BME280;1921;49.368;11.068;2023-04-15T07:17:15;96637.56;;;10.42;74.28
3812;BME280;1921;49.368;11.068;2023-04-15T07:19:41;96647.59;;;10.59;74.66
3812;BME280;1921;49.368;11.068;2023-04-15T07:22:06;96649.41;;;10.58;71.92
3812;BME280;1921;49.368;11.068;2023-04-15T07:24:32;96631.53;;;10.48;72.80
3812;BME280;1921;49.368;11.068;2023-04-15T07:26:58;96631.97;;;10.52;73.19
3812;BME280;1921;49.368;11.068;2023-04-15T07:29:24;96577.03;;;10.47;72.53
3812;BME280;1921;49.368;11.068;2023-04-15T07:31:51;96642.78;;;10.82;69.52
3812;BME280;1921;49.368;11.068;2023-04-15T07:34:18;96624.72;;;10.87;70.53
3812;BME280;1921;49.368;11.068;2023-04-15T07:36:45;96624.06;;;10.98;71.98
3812;BME280;1921;49.368;11.068;2023-04-15T07:39:15;96660.75;;;11.37;69.14
3812;BME280;1921;49.368;11.068;2023-04-15T07:41:41;96625.47;;;11.14;70.67
3812;BME280;1921;49.368;11.068;2023-04-15T07:44:06;96646.91;;;11.23;68.22
3812;BME280;1921;49.368;11.068;2023-04-15T07:46:32;96612.81;;;11.04;68.61
3812;BME280;1921;49.368;11.068;2023-04-15T07:48:58;96640.66;;;11.37;66.38
3812;BME280;1921;49.368;11.068;2023-04-15T07:51:24;96627.66;;;11.17;64.52
3812;BME280;1921;49.368;11.068;2023-04-15T07:53:50;96670.41;;;11.16;66.69
3812;BME280;1921;49.368;11.068;2023-04-15T07:56:16;96606.91;;;10.58;68.55
3812;BME280;1921;49.368;11.068;2023-04-15T07:58:42;96628.56;;;10.51;72.11
3812;BME280;1921;49.368;11.068;2023-04-15T08:01:08;96671.41;;;10.22;73.32
3812;BME280;1921;49.368;11.068;2023-04-15T08:03:34;96675.69;;;10.57;72.83
3812;BME280;1921;49.368;11.068;2023-04-15T08:05:59;96588.53;;;9.58;73.64
3812;BME280;1921;49.368;11.068;2023-04-15T08:08:25;96640.91;;;10.03;73.58
3812;BME280;1921;49.368;11.068;2023-04-15T08:10:51;96630.63;;;9.75;72.57
3812;BME280;1921;49.368;11.068;2023-04-15T08:13:17;96663.09;;;9.92;74.89
3812;BME280;1921;49.368;11.068;2023-04-15T08:15:43;96596.31;;;9.52;71.69
3812;BME280;1921;49.368;11.068;2023-04-15T08:18:09;96672.63;;;9.59;72.66
3812;BME280;1921;49.368;11.068;2023-04-15T08:20:35;96624.72;;;9.47;72.18
3812;BME280;1921;49.368;11.068;2023-04-15T08:23:02;96644.25;;;9.77;73.14
3812;BME280;1921;49.368;11.068;2023-04-15T08:25:28;96658.75;;;10.13;70.14
3812;BME280;1921;49.368;11.068;2023-04-15T08:27:57;96629.19;;;9.73;70.98
3812;BME280;1921;49.368;11.068;2023-04-15T08:30:22;96618.41;;;9.69;71.09
3812;BME280;1921;49.368;11.068;2023-04-15T08:32:49;96616.84;;;9.94;69.30
3812;BME280;1921;49.368;11.068;2023-04-15T08:35:15;96645.59;;;10.41;69.72
3812;BME280;1921;49.368;11.068;2023-04-15T08:37:41;96645.59;;;10.41;71.20
3812;BME280;1921;49.368;11.068;2023-04-15T08:40:08;96629.69;;;10.09;67.49
3812;BME280;1921;49.368;11.068;2023-04-15T08:42:44;96649.06;;;9.87;69.26
3812;BME280;1921;49.368;11.068;2023-04-15T08:45:11;96629.69;;;9.41;72.95
3812;BME280;1921;49.368;11.068;2023-04-15T08:47:38;96673.75;;;9.50;74.23
3812;BME280;1921;49.368;11.068;2023-04-15T08:50:06;96623.88;;;8.21;79.39
3812;BME280;1921;49.368;11.068;2023-04-15T08:52:33;96651.47;;;8.43;81.48
3812;BME280;1921;49.368;11.068;2023-04-15T08:55:01;96633.84;;;7.60;85.46
3812;BME280;1921;49.368;11.068;2023-04-15T08:57:28;96695.94;;;7.61;87.07
3812;BME280;1921;49.368;11.068;2023-04-15T08:59:57;96696.31;;;7.28;90.62
3812;BME280;1921;49.368;11.068;2023-04-15T09:02:24;96683.25;;;7.37;89.26
3812;BME280;1921;49.368;11.068;2023-04-15T09:04:52;96638.31;;;7.51;90.31
3812;BME280;1921;49.368;11.068;2023-04-15T09:07:18;96661.63;;;7.80;86.37
3812;BME280;1921;49.368;11.068;2023-04-15T09:09:43;96605.03;;;7.18;88.38
3812;BME280;1921;49.368;11.068;2023-04-15T09:12:10;96683.91;;;7.90;86.48
3812;BME280;1921;49.368;11.068;2023-04-15T09:14:39;96633.16;;;8.08;84.52
3812;BME280;1921;49.368;11.068;2023-04-15T09:17:05;96672.56;;;8.33;82.18
3812;BME280;1921;49.368;11.068;2023-04-15T09:19:34;96656.47;;;8.66;82.09
3812;BME280;1921;49.368;11.068;2023-04-15T09:22:01;96658.25;;;8.66;77.84
3812;BME280;1921;49.368;11.068;2023-04-15T09:24:37;96667.97;;;8.57;80.45
3812;BME280;1921;49.368;11.068;2023-04-15T09:27:03;96649.66;;;8.65;77.27
3812;BME280;1921;49.368;11.068;2023-04-15T09:29:29;96716.25;;;9.22;78.11
3812;BME280;1921;49.368;11.068;2023-04-15T09:31:55;96677.81;;;9.59;76.33
3812;BME280;1921;49.368;11.068;2023-04-15T09:34:35;96669.50;;;9.83;72.54
3812;BME280;1921;49.368;11.068;2023-04-15T09:37:01;96682.63;;;9.21;75.01
3812;BME280;1921;49.368;11.068;2023-04-15T09:39:27;96701.22;;;9.17;73.15
3812;BME280;1921;49.368;11.068;2023-04-15T09:42:06;96634.56;;;8.54;74.90
3812;BME280;1921;49.368;11.068;2023-04-15T09:44:32;96679.53;;;8.54;76.64
3812;BME280;1921;49.368;11.068;2023-04-15T09:46:58;96687.72;;;9.01;73.75
3812;BME280;1921;49.368;11.068;2023-04-15T09:49:24;96690.47;;;9.27;72.03
3812;BME280;1921;49.368;11.068;2023-04-15T09:51:50;96690.44;;;9.21;75.08
3812;BME280;1921;49.368;11.068;2023-04-15T09:54:20;96644.69;;;9.39;70.40
3812;BME280;1921;49.368;11.068;2023-04-15T09:56:47;96678.59;;;9.18;72.24
3812;BME280;1921;49.368;11.068;2023-04-15T09:59:13;96689.16;;;9.10;74.88
3812;BME280;1921;49.368;11.068;2023-04-15T10:01:40;96692.75;;;9.09;74.61
3812;BME280;1921;49.368;11.068;2023-04-15T10:04:08;96711.63;;;8.89;78.49
3812;BME280;1921;49.368;11.068;2023-04-15T10:06:35;96721.63;;;8.43;79.61
3812;BME280;1921;49.368;11.068;2023-04-15T10:09:01;96682.56;;;8.15;81.24
3812;BME280;1921;49.368;11.068;2023-04-15T10:11:31;96703.81;;;8.25;82.09
3812;BME280;1921;49.368;11.068;2023-04-15T10:13:58;96700.69;;;7.94;81.58
3812;BME280;1921;49.368;11.068;2023-04-15T10:16:26;96735.97;;;8.24;86.34
3812;BME280;1921;49.368;11.068;2023-04-15T10:18:57;96714.94;;;8.55;84.14
3812;BME280;1921;49.368;11.068;2023-04-15T10:21:25;96726.66;;;8.45;81.76
3812;BME280;1921;49.368;11.068;2023-04-15T10:23:52;96759.09;;;8.55;83.98
3812;BME280;1921;49.368;11.068;2023-04-15T10:26:18;96707.88;;;8.49;84.46
3812;BME280;1921;49.368;11.068;2023-04-15T10:28:45;96722.09;;;8.75;82.49
3812;BME280;1921;49.368;11.068;2023-04-15T10:31:14;96727.81;;;8.63;81.88
3812;BME280;1921;49.368;11.068;2023-04-15T10:33:41;96673.66;;;8.24;84.62
3812;BME280;1921;49.368;11.068;2023-04-15T10:36:08;96650.28;;;8.03;86.47
3812;BME280;1921;49.368;11.068;2023-04-15T10:38:40;96761.03;;;8.89;87.42
3812;BME280;1921;49.368;11.068;2023-04-15T10:41:24;96741.97;;;8.82;84.97
3812;BME280;1921;49.368;11.068;2023-04-15T10:44:04;96761.13;;;9.31;86.02
3812;BME280;1921;49.368;11.068;2023-04-15T10:46:43;96696.16;;;8.81;80.76
3812;BME280;1921;49.368;11.068;2023-04-15T10:49:12;96770.88;;;9.22;81.13
3812;BME280;1921;49.368;11.068;2023-04-15T10:51:44;96706.75;;;8.80;79.08
3812;BME280;1921;49.368;11.068;2023-04-15T10:54:14;96767.13;;;9.03;80.34
3812;BME280;1921;49.368;11.068;2023-04-15T10:56:42;96756.22;;;9.14;79.35
3812;BME280;1921;49.368;11.068;2023-04-15T10:59:09;96664.94;;;8.81;81.44
3812;BME280;1921;49.368;11.068;2023-04-15T11:02:04;96692.44;;;9.25;80.43
3812;BME280;1921;49.368;11.068;2023-04-15T11:04:58;96746.19;;;9.39;81.05
3812;BME280;1921;49.368;11.068;2023-04-15T11:07:47;96775.13;;;9.99;76.94
3812;BME280;1921;49.368;11.068;2023-04-15T11:12:47;96735.00;;;9.46;79.10
3812;BME280;1921;49.368;11.068;2023-04-15T11:15:38;96697.53;;;9.05;77.67
3812;BME280;1921;49.368;11.068;2023-04-15T11:18:24;96761.50;;;9.00;81.08
3812;BME280;1921;49.368;11.068;2023-04-15T11:20:53;96691.13;;;8.52;81.47
3812;BME280;1921;49.368;11.068;2023-04-15T11:25:56;96741.88;;;9.25;79.00
3812;BME280;1921;49.368;11.068;2023-04-15T11:28:26;96758.81;;;9.77;78.72
3812;BME280;1921;49.368;11.068;2023-04-15T11:30:53;96744.66;;;9.52;75.88
3812;BME280;1921;49.368;11.068;2023-04-15T11:33:20;96737.03;;;9.50;76.39
3812;BME280;1921;49.368;11.068;2023-04-15T11:35:47;96743.94;;;9.36;75.88
3812;BME280;1921;49.368;11.068;2023-04-15T11:38:13;96714.94;;;9.81;75.69
3812;BME280;1921;49.368;11.068;2023-04-15T11:40:41;96705.59;;;9.99;73.73
3812;BME280;1921;49.368;11.068;2023-04-15T11:43:19;96761.06;;;10.35;72.63
3812;BME280;1921;49.368;11.068;2023-04-15T11:45:55;96723.78;;;9.38;75.64
3812;BME280;1921;49.368;11.068;2023-04-15T11:48:33;96793.84;;;10.22;73.37
3812;BME280;1921;49.368;11.068;2023-04-15T11:51:05;96715.16;;;9.86;75.49
3812;BME280;1921;49.368;11.068;2023-04-15T11:53:46;96736.09;;;9.58;73.82
3812;BME280;1921;49.368;11.068;2023-04-15T11:56:23;96761.66;;;9.89;73.00
3812;BME280;1921;49.368;11.068;2023-04-15T11:58:55;96746.38;;;9.79;73.45
3812;BME280;1921;49.368;11.068;2023-04-15T12:01:37;96750.56;;;9.74;72.34
3812;BME280;1921;49.368;11.068;2023-04-15T12:04:16;96736.66;;;9.53;73.34
3812;BME280;1921;49.368;11.068;2023-04-15T12:06:44;96751.22;;;9.48;73.97
3812;BME280;1921;49.368;11.068;2023-04-15T12:09:15;96768.06;;;9.52;75.25
3812;BME280;1921;49.368;11.068;2023-04-15T12:11:48;96774.66;;;9.82;74.68
3812;BME280;1921;49.368;11.068;2023-04-15T12:16:50;96790.22;;;9.69;74.88
3812;BME280;1921;49.368;11.068;2023-04-15T12:19:27;96767.28;;;9.23;77.50
3812;BME280;1921;49.368;11.068;2023-04-15T12:22:02;96802.84;;;9.72;74.81
3812;BME280;1921;49.368;11.068;2023-04-15T12:24:31;96794.31;;;9.91;74.57
3812;BME280;1921;49.368;11.068;2023-04-15T12:27:05;96781.91;;;9.93;73.53
3812;BME280;1921;49.368;11.068;2023-04-15T12:29:32;96818.38;;;10.28;72.95
3812;BME280;1921;49.368;11.068;2023-04-15T12:32:08;96808.44;;;9.69;76.33
3812;BME280;1921;49.368;11.068;2023-04-15T12:37:04;96781.59;;;10.16;73.58
3812;BME280;1921;49.368;11.068;2023-04-15T12:39:43;96786.13;;;9.94;72.54
3812;BME280;1921;49.368;11.068;2023-04-15T12:42:10;96814.34;;;9.91;73.57
3812;BME280;1921;49.368;11.068;2023-04-15T12:44:37;96820.19;;;9.58;75.29
3812;BME280;1921;49.368;11.068;2023-04-15T12:47:04;96793.97;;;9.32;75.55
3812;BME280;1921;49.368;11.068;2023-04-15T12:49:30;96801.59;;;9.68;75.04
3812;BME280;1921;49.368;11.068;2023-04-15T12:51:59;96839.34;;;9.85;75.59
3812;BME280;1921;49.368;11.068;2023-04-15T12:54:25;96806.16;;;9.59;74.73
3812;BME280;1921;49.368;11.068;2023-04-15T12:56:52;96819.06;;;9.74;75.44
3812;BME280;1921;49.368;11.068;2023-04-15T12:59:19;96814.72;;;9.53;75.32
3812;BME280;1921;49.368;11.068;2023-04-15T13:01:47;96830.94;;;9.83;74.30
3812;BME280;1921;49.368;11.068;2023-04-15T13:04:13;96859.56;;;10.18;73.92
3812;BME280;1921;49.368;11.068;2023-04-15T13:06:39;96793.28;;;9.86;73.04
3812;BME280;1921;49.368;11.068;2023-04-15T13:09:05;96855.31;;;10.38;73.04
3812;BME280;1921;49.368;11.068;2023-04-15T13:11:32;96816.81;;;10.06;72.45
3812;BME280;1921;49.368;11.068;2023-04-15T13:14:03;96851.72;;;10.46;72.15
3812;BME280;1921;49.368;11.068;2023-04-15T13:16:31;96819.06;;;10.50;71.62
3812;BME280;1921;49.368;11.068;2023-04-15T13:18:58;96841.84;;;11.09;69.61
3812;BME280;1921;49.368;11.068;2023-04-15T13:21:25;96789.97;;;10.46;68.76
3812;BME280;1921;49.368;11.068;2023-04-15T13:23:51;96797.78;;;10.53;68.94
3812;BME280;1921;49.368;11.068;2023-04-15T13:26:17;96848.97;;;10.74;70.52
3812;BME280;1921;49.368;11.068;2023-04-15T13:28:44;96876.44;;;10.63;71.95
3812;BME280;1921;49.368;11.068;2023-04-15T13:31:10;96813.66;;;10.17;70.88